sensor_id;sensor_type;location;lat;lon;timestamp;P1;durP1;ratioP1;P2;durP2;ratioP2
32810;SDS011;65470;47.324;8.548;2023-02-04T00:02:22;3.17;;;2.10;;
32810;SDS011;65470;47.324;8.548;2023-02-04T00:04:48;4.70;;;1.92;;
32810;SDS011;65470;47.324;8.548;2023-02-04T00:07:13;5.65;;;2.65;;
32810;SDS011;65470;47.324;8.548;2023-02-04T00:09:42;2.97;;;2.30;;
32810;SDS011;65470;47.324;8.548;2023-02-04T00:12:10;7.00;;;2.95;;
32810;SDS011;65470;47.324;8.548;2023-02-04T00:14:36;4.85;;;2.70;;
32810;SDS011;65470;47.324;8.548;2023-02-04T00:17:02;4.63;;;3.22;;
32810;SDS011;65470;47.324;8.548;2023-02-04T00:19:28;6.55;;;3.78;;
32810;SDS011;65470;47.324;8.548;2023-02-04T00:21:53;5.45;;;3.55;;
32810;SDS011;65470;47.324;8.548;2023-02-04T00:24:19;3.63;;;3.13;;
32810;SDS011;65470;47.324;8.548;2023-02-04T00:26:44;6.50;;;3.60;;
32810;SDS011;65470;47.324;8.548;2023-02-04T00:29:10;5.60;;;3.65;;
32810;SDS011;65470;47.324;8.548;2023-02-04T00:31:36;8.27;;;3.78;;
32810;SDS011;65470;47.324;8.548;2023-02-04T00:34:01;8.48;;;4.35;;
32810;SDS011;65470;47.324;8.548;2023-02-04T00:36:27;5.95;;;3.50;;
32810;SDS011;65470;47.324;8.548;2023-02-04T00:38:53;7.05;;;3.78;;
32810;SDS011;65470;47.324;8.548;2023-02-04T00:41:18;5.22;;;4.10;;
32810;SDS011;65470;47.324;8.548;2023-02-04T00:43:44;9.02;;;4.13;;
32810;SDS011;65470;47.324;8.548;2023-02-04T00:46:09;5.68;;;4.35;;
32810;SDS011;65470;47.324;8.548;2023-02-04T00:48:35;6.40;;;4.40;;
32810;SDS011;65470;47.324;8.548;2023-02-04T00:51:01;5.95;;;4.10;;
32810;SDS011;65470;47.324;8.548;2023-02-04T00:53:27;6.97;;;4.78;;
32810;SDS011;65470;47.324;8.548;2023-02-04T00:55:52;5.10;;;4.00;;
32810;SDS011;65470;47.324;8.548;2023-02-04T00:58:18;7.03;;;4.70;;
32810;SDS011;65470;47.324;8.548;2023-02-04T01:00:43;7.60;;;4.85;;
32810;SDS011;65470;47.324;8.548;2023-02-04T01:03:09;6.85;;;5.30;;
32810;SDS011;65470;47.324;8.548;2023-02-04T01:05:36;6.53;;;4.63;;
32810;SDS011;65470;47.324;8.548;2023-02-04T01:08:02;6.20;;;4.97;;
32810;SDS011;65470;47.324;8.548;2023-02-04T01:10:27;8.93;;;5.05;;
32810;SDS011;65470;47.324;8.548;2023-02-04T01:12:53;8.98;;;5.18;;
32810;SDS011;65470;47.324;8.548;2023-02-04T01:15:19;7.03;;;5.47;;
32810;SDS011;65470;47.324;8.548;2023-02-04T01:17:46;7.43;;;4.82;;
32810;SDS011;65470;47.324;8.548;2023-02-04T01:20:12;5.80;;;5.00;;
32810;SDS011;65470;47.324;8.548;2023-02-04T01:22:38;6.82;;;5.30;;
32810;SDS011;65470;47.324;8.548;2023-02-04T01:25:04;8.98;;;5.65;;
32810;SDS011;65470;47.324;8.548;2023-02-04T01:27:30;9.75;;;5.82;;
32810;SDS011;65470;47.324;8.548;2023-02-04T01:29:56;10.98;;;5.72;;
32810;SDS011;65470;47.324;8.548;2023-02-04T01:32:21;6.00;;;4.85;;
32810;SDS011;65470;47.324;8.548;2023-02-04T01:34:47;6.10;;;5.50;;
32810;SDS011;65470;47.324;8.548;2023-02-04T01:37:13;7.00;;;5.82;;
32810;SDS011;65470;47.324;8.548;2023-02-04T01:39:38;8.27;;;5.50;;
32810;SDS011;65470;47.324;8.548;2023-02-04T01:42:04;8.15;;;5.97;;
32810;SDS011;65470;47.324;8.548;2023-02-04T01:44:30;7.97;;;5.68;;
32810;SDS011;65470;47.324;8.548;2023-02-04T01:46:55;7.80;;;5.95;;
32810;SDS011;65470;47.324;8.548;2023-02-04T01:49:21;7.68;;;5.80;;
32810;SDS011;65470;47.324;8.548;2023-02-04T01:51:47;8.45;;;6.22;;
32810;SDS011;65470;47.324;8.548;2023-02-04T01:54:13;8.55;;;6.63;;
32810;SDS011;65470;47.324;8.548;2023-02-04T01:56:42;7.82;;;5.82;;
32810;SDS011;65470;47.324;8.548;2023-02-04T01:59:13;7.50;;;6.10;;
32810;SDS011;65470;47.324;8.548;2023-02-04T02:04:09;7.25;;;6.15;;
32810;SDS011;65470;47.324;8.548;2023-02-04T02:06:38;7.97;;;6.43;;
32810;SDS011;65470;47.324;8.548;2023-02-04T02:09:06;10.45;;;6.43;;
32810;SDS011;65470;47.324;8.548;2023-02-04T02:11:32;7.40;;;5.93;;
32810;SDS011;65470;47.324;8.548;2023-02-04T02:13:58;9.48;;;6.15;;
32810;SDS011;65470;47.324;8.548;2023-02-04T02:16:24;10.90;;;6.45;;
32810;SDS011;65470;47.324;8.548;2023-02-04T02:18:50;7.55;;;6.45;;
32810;SDS011;65470;47.324;8.548;2023-02-04T02:21:18;5.88;;;5.28;;
32810;SDS011;65470;47.324;8.548;2023-02-04T02:23:52;6.75;;;5.32;;
32810;SDS011;65470;47.324;8.548;2023-02-04T02:26:21;7.25;;;5.32;;
32810;SDS011;65470;47.324;8.548;2023-02-04T02:28:48;5.85;;;5.25;;
32810;SDS011;65470;47.324;8.548;2023-02-04T02:31:15;7.18;;;4.75;;
32810;SDS011;65470;47.324;8.548;2023-02-04T02:33:42;5.65;;;4.63;;
32810;SDS011;65470;47.324;8.548;2023-02-04T02:36:08;6.35;;;4.90;;
32810;SDS011;65470;47.324;8.548;2023-02-04T02:38:34;5.40;;;4.20;;
32810;SDS011;65470;47.324;8.548;2023-02-04T02:41:01;5.88;;;4.68;;
32810;SDS011;65470;47.324;8.548;2023-02-04T02:43:27;6.18;;;4.50;;
32810;SDS011;65470;47.324;8.548;2023-02-04T02:45:54;5.60;;;4.43;;
32810;SDS011;65470;47.324;8.548;2023-02-04T02:48:22;4.68;;;3.83;;
32810;SDS011;65470;47.324;8.548;2023-02-04T02:50:48;6.80;;;3.80;;
32810;SDS011;65470;47.324;8.548;2023-02-04T02:53:14;5.57;;;3.70;;
32810;SDS011;65470;47.324;8.548;2023-02-04T02:55:42;6.65;;;3.95;;
32810;SDS011;65470;47.324;8.548;2023-02-04T02:58:30;5.00;;;3.63;;
32810;SDS011;65470;47.324;8.548;2023-02-04T03:04:20;4.55;;;3.83;;
32810;SDS011;65470;47.324;8.548;2023-02-04T03:06:46;3.50;;;3.20;;
32810;SDS011;65470;47.324;8.548;2023-02-04T03:09:13;3.63;;;3.13;;
32810;SDS011;65470;47.324;8.548;2023-02-04T03:11:38;6.32;;;3.88;;
32810;SDS011;65470;47.324;8.548;2023-02-04T03:14:04;3.75;;;3.22;;
32810;SDS011;65470;47.324;8.548;2023-02-04T03:16:31;4.22;;;3.38;;
32810;SDS011;65470;47.324;8.548;2023-02-04T03:19:01;3.67;;;2.75;;
32810;SDS011;65470;47.324;8.548;2023-02-04T03:21:29;3.35;;;2.72;;
32810;SDS011;65470;47.324;8.548;2023-02-04T03:23:55;5.38;;;3.08;;
32810;SDS011;65470;47.324;8.548;2023-02-04T03:26:21;4.68;;;3.20;;
32810;SDS011;65470;47.324;8.548;2023-02-04T03:28:48;5.60;;;3.15;;
32810;SDS011;65470;47.324;8.548;2023-02-04T03:31:14;3.45;;;2.60;;
32810;SDS011;65470;47.324;8.548;2023-02-04T03:33:40;3.20;;;2.50;;
32810;SDS011;65470;47.324;8.548;2023-02-04T03:36:06;3.95;;;2.78;;
32810;SDS011;65470;47.324;8.548;2023-02-04T03:38:32;3.08;;;2.78;;
32810;SDS011;65470;47.324;8.548;2023-02-04T03:40:58;2.85;;;2.40;;
32810;SDS011;65470;47.324;8.548;2023-02-04T03:43:24;3.05;;;2.50;;
32810;SDS011;65470;47.324;8.548;2023-02-04T03:45:49;2.67;;;2.42;;
32810;SDS011;65470;47.324;8.548;2023-02-04T03:48:15;3.13;;;2.67;;
32810;SDS011;65470;47.324;8.548;2023-02-04T03:50:41;3.90;;;2.40;;
32810;SDS011;65470;47.324;8.548;2023-02-04T03:53:07;4.18;;;2.50;;
32810;SDS011;65470;47.324;8.548;2023-02-04T03:55:32;2.33;;;2.10;;
32810;SDS011;65470;47.324;8.548;2023-02-04T03:57:58;2.67;;;2.28;;
32810;SDS011;65470;47.324;8.548;2023-02-04T04:00:24;2.10;;;1.90;;
32810;SDS011;65470;47.324;8.548;2023-02-04T04:02:49;2.78;;;2.05;;
32810;SDS011;65470;47.324;8.548;2023-02-04T04:05:15;3.38;;;2.10;;
32810;SDS011;65470;47.324;8.548;2023-02-04T04:07:41;5.57;;;4.05;;
32810;SDS011;65470;47.324;8.548;2023-02-04T04:10:07;7.13;;;5.53;;
32810;SDS011;65470;47.324;8.548;2023-02-04T04:12:32;7.40;;;5.28;;
32810;SDS011;65470;47.324;8.548;2023-02-04T04:14:58;7.50;;;6.00;;
32810;SDS011;65470;47.324;8.548;2023-02-04T04:17:24;6.97;;;5.60;;
32810;SDS011;65470;47.324;8.548;2023-02-04T04:19:49;9.95;;;6.82;;
32810;SDS011;65470;47.324;8.548;2023-02-04T04:22:15;9.80;;;7.75;;
32810;SDS011;65470;47.324;8.548;2023-02-04T04:24:40;9.82;;;7.80;;
32810;SDS011;65470;47.324;8.548;2023-02-04T04:27:06;9.43;;;6.97;;
32810;SDS011;65470;47.324;8.548;2023-02-04T04:29:32;10.70;;;7.80;;
32810;SDS011;65470;47.324;8.548;2023-02-04T04:31:58;9.18;;;7.18;;
32810;SDS011;65470;47.324;8.548;2023-02-04T04:34:23;9.55;;;6.90;;
32810;SDS011;65470;47.324;8.548;2023-02-04T04:36:49;12.55;;;7.57;;
32810;SDS011;65470;47.324;8.548;2023-02-04T04:39:14;8.38;;;7.45;;
32810;SDS011;65470;47.324;8.548;2023-02-04T04:41:40;9.88;;;7.30;;
32810;SDS011;65470;47.324;8.548;2023-02-04T04:44:05;8.82;;;7.90;;
32810;SDS011;65470;47.324;8.548;2023-02-04T04:46:31;9.10;;;7.68;;
32810;SDS011;65470;47.324;8.548;2023-02-04T04:48:57;9.77;;;8.05;;
32810;SDS011;65470;47.324;8.548;2023-02-04T04:51:22;8.57;;;6.70;;
32810;SDS011;65470;47.324;8.548;2023-02-04T04:53:48;8.43;;;7.57;;
32810;SDS011;65470;47.324;8.548;2023-02-04T04:56:13;8.90;;;7.57;;
32810;SDS011;65470;47.324;8.548;2023-02-04T04:58:39;9.50;;;6.93;;
32810;SDS011;65470;47.324;8.548;2023-02-04T05:01:05;8.70;;;6.93;;
32810;SDS011;65470;47.324;8.548;2023-02-04T05:03:30;11.45;;;7.50;;
32810;SDS011;65470;47.324;8.548;2023-02-04T05:05:56;7.57;;;6.15;;
32810;SDS011;65470;47.324;8.548;2023-02-04T05:08:22;7.88;;;6.32;;
32810;SDS011;65470;47.324;8.548;2023-02-04T05:10:47;7.68;;;6.18;;
32810;SDS011;65470;47.324;8.548;2023-02-04T05:13:13;8.35;;;6.55;;
32810;SDS011;65470;47.324;8.548;2023-02-04T05:15:39;7.13;;;5.85;;
32810;SDS011;65470;47.324;8.548;2023-02-04T05:18:04;6.68;;;5.30;;
32810;SDS011;65470;47.324;8.548;2023-02-04T05:20:30;7.28;;;5.97;;
32810;SDS011;65470;47.324;8.548;2023-02-04T05:22:56;10.90;;;6.90;;
32810;SDS011;65470;47.324;8.548;2023-02-04T05:25:25;10.18;;;8.02;;
32810;SDS011;65470;47.324;8.548;2023-02-04T05:27:51;9.98;;;7.75;;
32810;SDS011;65470;47.324;8.548;2023-02-04T05:30:17;10.40;;;7.60;;
32810;SDS011;65470;47.324;8.548;2023-02-04T05:32:42;9.43;;;8.25;;
32810;SDS011;65470;47.324;8.548;2023-02-04T05:35:08;12.13;;;7.70;;
32810;SDS011;65470;47.324;8.548;2023-02-04T05:37:34;9.27;;;8.27;;
32810;SDS011;65470;47.324;8.548;2023-02-04T05:39:59;9.02;;;8.10;;
32810;SDS011;65470;47.324;8.548;2023-02-04T05:42:25;9.02;;;7.45;;
32810;SDS011;65470;47.324;8.548;2023-02-04T05:44:50;10.45;;;7.32;;
32810;SDS011;65470;47.324;8.548;2023-02-04T05:47:16;8.85;;;8.00;;
32810;SDS011;65470;47.324;8.548;2023-02-04T05:49:44;10.68;;;8.05;;
32810;SDS011;65470;47.324;8.548;2023-02-04T05:52:10;11.68;;;7.18;;
32810;SDS011;65470;47.324;8.548;2023-02-04T05:54:36;9.73;;;8.38;;
32810;SDS011;65470;47.324;8.548;2023-02-04T05:57:02;9.55;;;8.43;;
32810;SDS011;65470;47.324;8.548;2023-02-04T05:59:27;11.88;;;9.35;;
32810;SDS011;65470;47.324;8.548;2023-02-04T06:01:53;9.73;;;7.75;;
32810;SDS011;65470;47.324;8.548;2023-02-04T06:04:18;10.13;;;8.65;;
32810;SDS011;65470;47.324;8.548;2023-02-04T06:06:44;9.07;;;8.07;;
32810;SDS011;65470;47.324;8.548;2023-02-04T06:09:10;10.93;;;8.85;;
32810;SDS011;65470;47.324;8.548;2023-02-04T06:11:36;9.70;;;8.60;;
32810;SDS011;65470;47.324;8.548;2023-02-04T06:14:01;10.38;;;9.27;;
32810;SDS011;65470;47.324;8.548;2023-02-04T06:16:27;11.10;;;8.90;;
32810;SDS011;65470;47.324;8.548;2023-02-04T06:18:53;12.05;;;10.85;;
32810;SDS011;65470;47.324;8.548;2023-02-04T06:21:18;12.93;;;9.63;;
32810;SDS011;65470;47.324;8.548;2023-02-04T06:23:44;13.35;;;10.88;;
32810;SDS011;65470;47.324;8.548;2023-02-04T06:26:10;14.45;;;10.75;;
32810;SDS011;65470;47.324;8.548;2023-02-04T06:28:36;14.95;;;11.10;;
32810;SDS011;65470;47.324;8.548;2023-02-04T06:31:01;12.43;;;10.75;;
32810;SDS011;65470;47.324;8.548;2023-02-04T06:33:27;12.00;;;10.68;;
32810;SDS011;65470;47.324;8.548;2023-02-04T06:35:53;12.90;;;11.23;;
32810;SDS011;65470;47.324;8.548;2023-02-04T06:38:19;12.95;;;10.25;;
32810;SDS011;65470;47.324;8.548;2023-02-04T06:40:44;11.57;;;9.48;;
32810;SDS011;65470;47.324;8.548;2023-02-04T06:43:13;11.85;;;9.77;;
32810;SDS011;65470;47.324;8.548;2023-02-04T06:45:40;14.45;;;9.15;;
32810;SDS011;65470;47.324;8.548;2023-02-04T06:48:05;10.77;;;9.50;;
32810;SDS011;65470;47.324;8.548;2023-02-04T06:50:31;10.68;;;8.93;;
32810;SDS011;65470;47.324;8.548;2023-02-04T06:52:57;13.30;;;9.88;;
32810;SDS011;65470;47.324;8.548;2023-02-04T06:55:23;11.43;;;8.93;;
32810;SDS011;65470;47.324;8.548;2023-02-04T06:57:48;9.55;;;8.52;;
32810;SDS011;65470;47.324;8.548;2023-02-04T07:00:14;13.50;;;8.88;;
32810;SDS011;65470;47.324;8.548;2023-02-04T07:02:40;8.88;;;7.93;;
32810;SDS011;65470;47.324;8.548;2023-02-04T07:05:06;11.88;;;8.18;;
32810;SDS011;65470;47.324;8.548;2023-02-04T07:07:32;9.48;;;7.95;;
32810;SDS011;65470;47.324;8.548;2023-02-04T07:09:58;11.45;;;8.93;;
32810;SDS011;65470;47.324;8.548;2023-02-04T07:12:24;10.20;;;9.18;;
32810;SDS011;65470;47.324;8.548;2023-02-04T07:14:49;12.70;;;9.05;;
32810;SDS011;65470;47.324;8.548;2023-02-04T07:17:15;13.25;;;9.98;;
32810;SDS011;65470;47.324;8.548;2023-02-04T07:19:41;15.15;;;10.93;;
32810;SDS011;65470;47.324;8.548;2023-02-04T07:22:06;13.90;;;11.35;;
32810;SDS011;65470;47.324;8.548;2023-02-04T07:24:32;15.48;;;11.68;;
32810;SDS011;65470;47.324;8.548;2023-02-04T07:26:57;15.43;;;12.18;;
32810;SDS011;65470;47.324;8.548;2023-02-04T07:29:23;13.43;;;11.60;;
32810;SDS011;65470;47.324;8.548;2023-02-04T07:31:49;15.85;;;12.90;;
32810;SDS011;65470;47.324;8.548;2023-02-04T07:34:18;14.50;;;12.10;;
32810;SDS011;65470;47.324;8.548;2023-02-04T07:36:44;13.07;;;10.73;;
32810;SDS011;65470;47.324;8.548;2023-02-04T07:39:09;14.27;;;11.82;;
32810;SDS011;65470;47.324;8.548;2023-02-04T07:41:35;13.30;;;11.90;;
32810;SDS011;65470;47.324;8.548;2023-02-04T07:44:01;14.65;;;11.40;;
32810;SDS011;65470;47.324;8.548;2023-02-04T07:46:27;12.50;;;11.25;;
32810;SDS011;65470;47.324;8.548;2023-02-04T07:48:53;16.55;;;12.32;;
32810;SDS011;65470;47.324;8.548;2023-02-04T07:51:19;15.32;;;12.68;;
32810;SDS011;65470;47.324;8.548;2023-02-04T07:53:44;15.52;;;12.15;;
32810;SDS011;65470;47.324;8.548;2023-02-04T07:56:10;17.50;;;12.38;;
32810;SDS011;65470;47.324;8.548;2023-02-04T07:58:35;16.55;;;12.40;;
32810;SDS011;65470;47.324;8.548;2023-02-04T08:01:01;16.55;;;11.23;;
32810;SDS011;65470;47.324;8.548;2023-02-04T08:03:27;14.10;;;11.23;;
32810;SDS011;65470;47.324;8.548;2023-02-04T08:05:53;12.75;;;11.30;;
32810;SDS011;65470;47.324;8.548;2023-02-04T08:08:19;15.27;;;12.10;;
32810;SDS011;65470;47.324;8.548;2023-02-04T08:10:45;12.80;;;11.43;;
32810;SDS011;65470;47.324;8.548;2023-02-04T08:13:10;15.18;;;10.88;;
32810;SDS011;65470;47.324;8.548;2023-02-04T08:15:36;12.32;;;11.02;;
32810;SDS011;65470;47.324;8.548;2023-02-04T08:18:02;14.93;;;11.13;;
32810;SDS011;65470;47.324;8.548;2023-02-04T08:20:28;13.73;;;11.07;;
32810;SDS011;65470;47.324;8.548;2023-02-04T08:22:55;13.90;;;10.85;;
32810;SDS011;65470;47.324;8.548;2023-02-04T08:25:21;20.38;;;13.07;;
32810;SDS011;65470;47.324;8.548;2023-02-04T08:27:48;14.32;;;12.43;;
32810;SDS011;65470;47.324;8.548;2023-02-04T08:30:13;12.70;;;11.23;;
32810;SDS011;65470;47.324;8.548;2023-02-04T08:32:39;14.95;;;11.07;;
32810;SDS011;65470;47.324;8.548;2023-02-04T08:35:05;13.98;;;12.20;;
32810;SDS011;65470;47.324;8.548;2023-02-04T08:37:32;14.10;;;11.55;;
32810;SDS011;65470;47.324;8.548;2023-02-04T08:39:58;13.77;;;12.25;;
32810;SDS011;65470;47.324;8.548;2023-02-04T08:42:23;12.45;;;11.15;;
32810;SDS011;65470;47.324;8.548;2023-02-04T08:44:49;12.75;;;11.40;;
32810;SDS011;65470;47.324;8.548;2023-02-04T08:47:14;13.00;;;10.98;;
32810;SDS011;65470;47.324;8.548;2023-02-04T08:49:40;15.13;;;12.40;;
32810;SDS011;65470;47.324;8.548;2023-02-04T08:52:06;14.75;;;12.02;;
32810;SDS011;65470;47.324;8.548;2023-02-04T08:54:32;15.32;;;11.63;;
32810;SDS011;65470;47.324;8.548;2023-02-04T08:56:59;15.90;;;12.65;;
32810;SDS011;65470;47.324;8.548;2023-02-04T08:59:25;14.60;;;10.88;;
32810;SDS011;65470;47.324;8.548;2023-02-04T09:01:51;15.82;;;11.77;;
32810;SDS011;65470;47.324;8.548;2023-02-04T09:04:20;14.05;;;12.55;;
32810;SDS011;65470;47.324;8.548;2023-02-04T09:06:47;14.35;;;12.48;;
32810;SDS011;65470;47.324;8.548;2023-02-04T09:09:14;16.50;;;11.68;;
32810;SDS011;65470;47.324;8.548;2023-02-04T09:11:40;11.77;;;10.55;;
32810;SDS011;65470;47.324;8.548;2023-02-04T09:14:06;12.85;;;11.55;;
32810;SDS011;65470;47.324;8.548;2023-02-04T09:16:32;13.38;;;11.63;;
32810;SDS011;65470;47.324;8.548;2023-02-04T09:18:58;9.05;;;8.15;;
32810;SDS011;65470;47.324;8.548;2023-02-04T09:21:24;12.52;;;9.95;;
32810;SDS011;65470;47.324;8.548;2023-02-04T09:23:50;12.27;;;9.40;;
32810;SDS011;65470;47.324;8.548;2023-02-04T09:26:15;10.30;;;9.23;;
32810;SDS011;65470;47.324;8.548;2023-02-04T09:28:41;10.68;;;9.60;;
32810;SDS011;65470;47.324;8.548;2023-02-04T09:31:07;9.50;;;6.53;;
32810;SDS011;65470;47.324;8.548;2023-02-04T09:33:33;8.68;;;7.78;;
32810;SDS011;65470;47.324;8.548;2023-02-04T09:35:59;8.48;;;7.68;;
32810;SDS011;65470;47.324;8.548;2023-02-04T09:38:25;7.85;;;7.00;;
32810;SDS011;65470;47.324;8.548;2023-02-04T09:40:55;8.63;;;7.13;;
32810;SDS011;65470;47.324;8.548;2023-02-04T09:43:24;8.65;;;6.32;;
32810;SDS011;65470;47.324;8.548;2023-02-04T09:45:53;7.43;;;6.32;;
32810;SDS011;65470;47.324;8.548;2023-02-04T09:48:20;8.90;;;6.82;;
32810;SDS011;65470;47.324;8.548;2023-02-04T09:50:48;6.88;;;6.25;;
32810;SDS011;65470;47.324;8.548;2023-02-04T09:53:16;7.45;;;6.75;;
32810;SDS011;65470;47.324;8.548;2023-02-04T09:55:45;8.32;;;7.50;;
32810;SDS011;65470;47.324;8.548;2023-02-04T09:58:16;10.15;;;7.13;;
32810;SDS011;65470;47.324;8.548;2023-02-04T10:00:45;9.63;;;6.78;;
32810;SDS011;65470;47.324;8.548;2023-02-04T10:03:16;6.85;;;5.45;;
32810;SDS011;65470;47.324;8.548;2023-02-04T10:05:44;6.93;;;6.15;;
32810;SDS011;65470;47.324;8.548;2023-02-04T10:08:14;10.25;;;6.90;;
32810;SDS011;65470;47.324;8.548;2023-02-04T10:10:43;10.25;;;6.85;;
32810;SDS011;65470;47.324;8.548;2023-02-04T10:13:13;8.15;;;6.82;;
32810;SDS011;65470;47.324;8.548;2023-02-04T10:15:43;8.05;;;7.25;;
32810;SDS011;65470;47.324;8.548;2023-02-04T10:18:10;6.45;;;5.85;;
32810;SDS011;65470;47.324;8.548;2023-02-04T10:20:41;8.07;;;6.30;;
32810;SDS011;65470;47.324;8.548;2023-02-04T10:23:08;8.30;;;6.60;;
32810;SDS011;65470;47.324;8.548;2023-02-04T10:25:35;8.65;;;6.22;;
32810;SDS011;65470;47.324;8.548;2023-02-04T10:28:01;6.68;;;5.97;;
32810;SDS011;65470;47.324;8.548;2023-02-04T10:30:28;9.18;;;6.88;;
32810;SDS011;65470;47.324;8.548;2023-02-04T10:32:59;8.45;;;6.35;;
32810;SDS011;65470;47.324;8.548;2023-02-04T10:35:43;8.63;;;7.82;;
32810;SDS011;65470;47.324;8.548;2023-02-04T10:38:10;6.53;;;5.93;;
32810;SDS011;65470;47.324;8.548;2023-02-04T10:40:35;5.75;;;5.25;;
32810;SDS011;65470;47.324;8.548;2023-02-04T10:43:14;6.57;;;5.88;;
32810;SDS011;65470;47.324;8.548;2023-02-04T10:45:56;6.72;;;5.65;;
32810;SDS011;65470;47.324;8.548;2023-02-04T10:48:25;6.32;;;5.47;;
32810;SDS011;65470;47.324;8.548;2023-02-04T10:50:51;10.00;;;9.00;;
32810;SDS011;65470;47.324;8.548;2023-02-04T10:53:19;9.68;;;8.68;;
32810;SDS011;65470;47.324;8.548;2023-02-04T10:56:05;10.63;;;8.82;;
32810;SDS011;65470;47.324;8.548;2023-02-04T10:58:41;10.90;;;8.77;;
32810;SDS011;65470;47.324;8.548;2023-02-04T11:01:10;9.50;;;8.60;;
32810;SDS011;65470;47.324;8.548;2023-02-04T11:03:36;10.95;;;7.78;;
32810;SDS011;65470;47.324;8.548;2023-02-04T11:06:04;9.32;;;8.38;;
32810;SDS011;65470;47.324;8.548;2023-02-04T11:08:36;11.05;;;8.40;;
32810;SDS011;65470;47.324;8.548;2023-02-04T11:11:03;8.05;;;7.28;;
32810;SDS011;65470;47.324;8.548;2023-02-04T11:13:41;9.02;;;7.07;;
32810;SDS011;65470;47.324;8.548;2023-02-04T11:18:48;6.70;;;5.85;;
32810;SDS011;65470;47.324;8.548;2023-02-04T11:23:48;8.65;;;6.72;;
32810;SDS011;65470;47.324;8.548;2023-02-04T11:26:15;7.25;;;6.55;;
32810;SDS011;65470;47.324;8.548;2023-02-04T11:28:49;10.40;;;7.25;;
32810;SDS011;65470;47.324;8.548;2023-02-04T11:39:26;6.93;;;6.22;;
32810;SDS011;65470;47.324;8.548;2023-02-04T11:41:57;9.20;;;6.15;;
32810;SDS011;65470;47.324;8.548;2023-02-04T11:44:24;7.93;;;6.18;;
32810;SDS011;65470;47.324;8.548;2023-02-04T11:46:50;6.55;;;4.93;;
32810;SDS011;65470;47.324;8.548;2023-02-04T11:49:20;8.38;;;5.93;;
32810;SDS011;65470;47.324;8.548;2023-02-04T11:51:47;8.30;;;6.68;;
32810;SDS011;65470;47.324;8.548;2023-02-04T11:54:14;6.88;;;6.10;;
32810;SDS011;65470;47.324;8.548;2023-02-04T11:56:43;7.78;;;6.65;;
32810;SDS011;65470;47.324;8.548;2023-02-04T11:59:11;7.72;;;6.03;;
32810;SDS011;65470;47.324;8.548;2023-02-04T12:01:38;6.93;;;5.97;;
32810;SDS011;65470;47.324;8.548;2023-02-04T12:04:05;9.10;;;6.55;;
32810;SDS011;65470;47.324;8.548;2023-02-04T12:06:55;7.03;;;6.32;;
32810;SDS011;65470;47.324;8.548;2023-02-04T12:09:26;7.55;;;6.85;;
32810;SDS011;65470;47.324;8.548;2023-02-04T12:11:57;7.47;;;6.80;;
32810;SDS011;65470;47.324;8.548;2023-02-04T12:16:57;9.57;;;7.38;;
32810;SDS011;65470;47.324;8.548;2023-02-04T12:19:24;8.50;;;7.30;;
32810;SDS011;65470;47.324;8.548;2023-02-04T12:21:49;7.53;;;6.32;;
32810;SDS011;65470;47.324;8.548;2023-02-04T12:24:15;8.73;;;7.93;;
32810;SDS011;65470;47.324;8.548;2023-02-04T12:26:40;10.60;;;7.82;;
32810;SDS011;65470;47.324;8.548;2023-02-04T12:29:06;12.15;;;8.80;;
32810;SDS011;65470;47.324;8.548;2023-02-04T12:31:33;12.63;;;8.32;;
32810;SDS011;65470;47.324;8.548;2023-02-04T12:33:59;10.00;;;8.98;;
32810;SDS011;65470;47.324;8.548;2023-02-04T12:36:25;11.07;;;9.57;;
32810;SDS011;65470;47.324;8.548;2023-02-04T12:38:54;13.45;;;9.25;;
32810;SDS011;65470;47.324;8.548;2023-02-04T12:41:20;10.48;;;9.05;;
32810;SDS011;65470;47.324;8.548;2023-02-04T12:43:45;11.25;;;9.13;;
32810;SDS011;65470;47.324;8.548;2023-02-04T12:46:14;10.05;;;8.40;;
32810;SDS011;65470;47.324;8.548;2023-02-04T12:48:40;9.93;;;8.15;;
32810;SDS011;65470;47.324;8.548;2023-02-04T12:51:06;8.65;;;7.75;;
32810;SDS011;65470;47.324;8.548;2023-02-04T12:53:32;8.00;;;7.28;;
32810;SDS011;65470;47.324;8.548;2023-02-04T12:55:57;8.77;;;7.95;;
32810;SDS011;65470;47.324;8.548;2023-02-04T12:58:23;8.68;;;7.88;;
32810;SDS011;65470;47.324;8.548;2023-02-04T13:00:49;7.70;;;6.72;;
32810;SDS011;65470;47.324;8.548;2023-02-04T13:03:14;8.60;;;7.78;;
32810;SDS011;65470;47.324;8.548;2023-02-04T13:05:40;9.70;;;7.50;;
32810;SDS011;65470;47.324;8.548;2023-02-04T13:08:06;10.65;;;8.02;;
32810;SDS011;65470;47.324;8.548;2023-02-04T13:10:32;8.45;;;7.65;;
32810;SDS011;65470;47.324;8.548;2023-02-04T13:12:57;7.70;;;7.00;;
32810;SDS011;65470;47.324;8.548;2023-02-04T13:15:24;8.50;;;7.18;;
32810;SDS011;65470;47.324;8.548;2023-02-04T13:17:50;6.72;;;6.00;;
32810;SDS011;65470;47.324;8.548;2023-02-04T13:20:15;7.25;;;6.50;;
32810;SDS011;65470;47.324;8.548;2023-02-04T13:22:41;6.60;;;6.00;;
32810;SDS011;65470;47.324;8.548;2023-02-04T13:25:07;6.63;;;5.55;;
32810;SDS011;65470;47.324;8.548;2023-02-04T13:27:35;5.82;;;5.32;;
32810;SDS011;65470;47.324;8.548;2023-02-04T13:30:01;8.68;;;7.82;;
32810;SDS011;65470;47.324;8.548;2023-02-04T13:32:28;7.50;;;3.40;;
32810;SDS011;65470;47.324;8.548;2023-02-04T13:34:54;5.07;;;3.83;;
32810;SDS011;65470;47.324;8.548;2023-02-04T13:37:20;3.88;;;3.10;;
32810;SDS011;65470;47.324;8.548;2023-02-04T13:39:45;2.75;;;2.55;;
32810;SDS011;65470;47.324;8.548;2023-02-04T13:42:11;5.82;;;3.90;;
32810;SDS011;65470;47.324;8.548;2023-02-04T13:44:36;8.57;;;4.32;;
32810;SDS011;65470;47.324;8.548;2023-02-04T13:47:02;3.67;;;2.78;;
32810;SDS011;65470;47.324;8.548;2023-02-04T13:49:28;4.10;;;3.20;;
32810;SDS011;65470;47.324;8.548;2023-02-04T13:51:54;4.57;;;3.45;;
32810;SDS011;65470;47.324;8.548;2023-02-04T13:54:19;4.32;;;3.17;;
32810;SDS011;65470;47.324;8.548;2023-02-04T13:56:45;6.75;;;4.53;;
32810;SDS011;65470;47.324;8.548;2023-02-04T13:59:11;18.10;;;16.13;;
32810;SDS011;65470;47.324;8.548;2023-02-04T14:01:37;5.13;;;4.60;;
32810;SDS011;65470;47.324;8.548;2023-02-04T14:04:03;8.68;;;6.40;;
32810;SDS011;65470;47.324;8.548;2023-02-04T14:06:28;6.63;;;3.38;;
32810;SDS011;65470;47.324;8.548;2023-02-04T14:09:01;4.82;;;3.08;;
32810;SDS011;65470;47.324;8.548;2023-02-04T14:11:27;3.97;;;2.90;;
32810;SDS011;65470;47.324;8.548;2023-02-04T14:13:53;6.28;;;2.97;;
32810;SDS011;65470;47.324;8.548;2023-02-04T14:16:18;7.22;;;3.88;;
32810;SDS011;65470;47.324;8.548;2023-02-04T14:18:44;5.82;;;3.55;;
32810;SDS011;65470;47.324;8.548;2023-02-04T14:21:10;6.38;;;3.78;;
32810;SDS011;65470;47.324;8.548;2023-02-04T14:23:35;4.47;;;3.50;;
32810;SDS011;65470;47.324;8.548;2023-02-04T14:26:01;5.07;;;3.35;;
32810;SDS011;65470;47.324;8.548;2023-02-04T14:28:27;5.78;;;3.97;;
32810;SDS011;65470;47.324;8.548;2023-02-04T14:30:52;5.85;;;3.53;;
32810;SDS011;65470;47.324;8.548;2023-02-04T14:33:19;3.92;;;3.33;;
32810;SDS011;65470;47.324;8.548;2023-02-04T14:35:45;5.78;;;4.22;;
32810;SDS011;65470;47.324;8.548;2023-02-04T14:38:10;4.30;;;3.90;;
32810;SDS011;65470;47.324;8.548;2023-02-04T14:40:40;5.38;;;3.53;;
32810;SDS011;65470;47.324;8.548;2023-02-04T14:43:06;5.35;;;3.83;;
32810;SDS011;65470;47.324;8.548;2023-02-04T14:45:32;5.97;;;3.80;;
32810;SDS011;65470;47.324;8.548;2023-02-04T14:47:58;5.28;;;3.40;;
32810;SDS011;65470;47.324;8.548;2023-02-04T14:50:25;5.82;;;3.30;;
32810;SDS011;65470;47.324;8.548;2023-02-04T14:52:52;4.28;;;3.85;;
32810;SDS011;65470;47.324;8.548;2023-02-04T14:55:20;4.80;;;3.38;;
32810;SDS011;65470;47.324;8.548;2023-02-04T14:57:47;6.50;;;3.42;;
32810;SDS011;65470;47.324;8.548;2023-02-04T15:00:12;5.57;;;3.10;;